createdAt,value
2017-07-20T03:51:42.654Z,300
2017-07-20T03:52:44.018Z,292
2017-07-20T03:54:05.556Z,296
2017-07-20T03:55:06.918Z,320
2017-07-20T03:56:28.437Z,372
2017-07-20T03:57:29.801Z,412
2017-07-20T03:58:51.318Z,448
2017-07-20T03:59:52.683Z,472
2017-07-20T04:01:14.218Z,500
2017-07-20T04:02:15.582Z,540
2017-07-20T04:03:37.102Z,640
2017-07-20T04:04:38.469Z,740
2017-07-20T04:06:00.002Z,844
2017-07-20T04:07:01.367Z,880
2017-07-20T04:08:22.888Z,860
2017-07-20T04:09:24.256Z,856
2017-07-20T04:10:45.796Z,868
2017-07-20T04:11:47.162Z,872
2017-07-20T04:13:08.684Z,864
2017-07-20T04:14:10.052Z,848
2017-07-20T04:15:31.590Z,856
2017-07-20T04:16:32.954Z,888
2017-07-20T04:17:54.477Z,1000
2017-07-20T04:18:55.845Z,1080
2017-07-20T04:20:17.382Z,1176
2017-07-20T04:21:18.749Z,1288
2017-07-20T04:22:40.277Z,1448
2017-07-20T04:23:41.641Z,1528
2017-07-20T04:25:03.183Z,1600
2017-07-20T04:26:04.549Z,1692
2017-07-20T04:27:26.082Z,1800
2017-07-20T04:28:27.449Z,1748
2017-07-20T04:29:48.989Z,1652
2017-07-20T04:30:50.356Z,1544
2017-07-20T04:32:11.885Z,1384
2017-07-20T04:33:13.249Z,1244
2017-07-20T04:34:34.789Z,1084
2017-07-20T04:35:36.156Z,996
2017-07-20T04:36:57.679Z,920
2017-07-20T04:37:59.050Z,876
2017-07-20T04:39:20.589Z,864
2017-07-20T04:40:21.953Z,876
2017-07-20T04:41:43.972Z,936
2017-07-20T04:42:45.339Z,996
2017-07-20T04:44:06.863Z,1088
2017-07-20T04:45:08.234Z,1120
2017-07-20T04:46:29.770Z,1136
2017-07-20T04:47:31.139Z,1176
2017-07-20T04:48:52.662Z,1208
2017-07-20T04:49:54.045Z,1196
2017-07-20T04:51:15.575Z,1100
2017-07-20T04:52:16.942Z,1120
2017-07-20T04:53:38.464Z,1292
2017-07-20T04:54:39.833Z,1404
2017-07-20T04:56:01.871Z,1428
2017-07-20T04:57:03.243Z,1400
2017-07-20T04:58:24.774Z,1356
2017-07-20T04:59:26.142Z,1492
2017-07-20T05:00:47.686Z,1708
2017-07-20T05:01:49.052Z,1884
2017-07-20T05:03:11.071Z,2004
2017-07-20T05:04:12.440Z,2024
2017-07-20T05:05:33.979Z,1996
2017-07-20T05:06:35.349Z,1900
2017-07-20T05:07:56.879Z,1692
2017-07-20T05:08:58.242Z,1564
2017-07-20T05:10:19.785Z,1400
2017-07-20T05:11:21.151Z,1276
2017-07-20T05:12:42.673Z,1152
2017-07-20T05:13:44.042Z,1084
2017-07-20T05:15:05.585Z,1068
2017-07-20T05:16:06.953Z,1032
2017-07-20T05:17:28.477Z,808
2017-07-20T05:18:29.843Z,624
2017-07-20T05:19:51.383Z,468
2017-07-20T05:20:52.749Z,396
2017-07-20T05:22:14.271Z,332
2017-07-20T05:23:15.652Z,308
2017-07-20T05:24:37.159Z,308
2017-07-20T05:25:38.526Z,332
2017-07-20T05:27:00.066Z,416
2017-07-20T05:28:01.433Z,488
2017-07-20T05:29:22.956Z,392
2017-07-20T05:30:24.321Z,308
2017-07-20T05:31:46.354Z,224
2017-07-20T05:32:47.721Z,184
2017-07-20T05:34:09.240Z,184
2017-07-20T05:35:10.616Z,196
2017-07-20T05:36:32.154Z,216
2017-07-20T05:37:33.520Z,228
2017-07-20T05:38:55.041Z,352
2017-07-20T05:39:56.408Z,440
2017-07-20T05:41:17.946Z,592
2017-07-20T05:42:19.312Z,744
2017-07-20T05:43:40.834Z,904
2017-07-20T05:44:42.203Z,1016
2017-07-20T05:46:03.743Z,1196
2017-07-20T05:47:05.111Z,1296
2017-07-20T05:48:26.631Z,1468
2017-07-20T05:49:28.002Z,1576
2017-07-20T05:50:49.539Z,1752
2017-07-20T05:51:50.908Z,1792
2017-07-20T05:53:12.430Z,1716
2017-07-20T05:54:13.798Z,1748
2017-07-20T05:55:35.337Z,1856
2017-07-20T05:56:36.705Z,1900
2017-07-20T05:57:58.226Z,2020
2017-07-20T05:58:59.595Z,2112
2017-07-20T06:00:21.140Z,1996
2017-07-20T06:01:22.503Z,1864
2017-07-20T06:02:44.152Z,1660
2017-07-20T06:03:45.522Z,1580
2017-07-20T06:05:07.088Z,1560
2017-07-20T06:06:08.455Z,1464
2017-07-20T06:07:29.976Z,1360
2017-07-20T06:08:31.346Z,1248
2017-07-20T06:09:52.868Z,1208
2017-07-20T06:10:54.237Z,1040
2017-07-20T06:12:15.778Z,1072
2017-07-20T06:13:17.144Z,968
2017-07-20T06:14:38.664Z,956
2017-07-20T06:15:40.035Z,1112
2017-07-20T06:17:01.576Z,1376
2017-07-20T06:18:02.942Z,1520
2017-07-20T06:19:24.467Z,1564
2017-07-20T06:20:25.834Z,1540
2017-07-20T06:21:47.373Z,1500
2017-07-20T06:22:48.743Z,1432
2017-07-20T06:24:10.266Z,1364
2017-07-20T06:25:11.633Z,1320
2017-07-20T06:26:33.176Z,1268
2017-07-20T06:27:34.542Z,1232
2017-07-20T06:28:56.068Z,1200
2017-07-20T06:29:57.436Z,1180
2017-07-20T06:31:18.978Z,1144
2017-07-20T06:32:20.348Z,1156
2017-07-20T06:33:41.870Z,1208
2017-07-20T06:34:43.240Z,1296
2017-07-20T06:36:04.781Z,1392
2017-07-20T06:37:06.146Z,1464
2017-07-20T06:38:27.673Z,1452
2017-07-20T06:39:29.041Z,1484
2017-07-20T06:40:51.578Z,1576
2017-07-20T06:41:52.944Z,1672
2017-07-20T06:43:14.470Z,1796
2017-07-20T06:44:15.838Z,1872
2017-07-20T06:45:37.378Z,1952
2017-07-20T06:46:38.752Z,2008
2017-07-20T06:48:00.269Z,2068
2017-07-20T06:49:01.641Z,2140
2017-07-20T06:50:23.161Z,2280
2017-07-20T06:51:24.531Z,2400
2017-07-20T06:52:46.074Z,2620
2017-07-20T06:53:47.462Z,2916
2017-07-20T06:55:08.969Z,3328
2017-07-20T06:56:10.338Z,3564
2017-07-20T06:57:31.880Z,4160
2017-07-20T06:58:33.249Z,4764
2017-07-20T06:59:54.772Z,5548
2017-07-20T07:00:56.142Z,6072
2017-07-20T07:02:17.688Z,7152
2017-07-20T07:03:19.056Z,7912
2017-07-20T07:04:40.578Z,8716
2017-07-20T07:05:41.948Z,8944
2017-07-20T07:07:03.491Z,9272
2017-07-20T07:08:04.863Z,10100
2017-07-20T07:09:26.394Z,11076
2017-07-20T07:10:27.762Z,11288
2017-07-20T07:11:49.305Z,11056
2017-07-20T07:12:50.676Z,11100
2017-07-20T07:14:12.199Z,11452
2017-07-20T07:15:13.572Z,11544
2017-07-20T07:16:35.121Z,11268
2017-07-20T07:17:36.493Z,10744
2017-07-20T07:18:58.021Z,10256
2017-07-20T07:19:59.388Z,9784
2017-07-20T07:21:20.933Z,9124
2017-07-20T07:22:22.301Z,8480
2017-07-20T07:23:43.833Z,7684
2017-07-20T07:24:45.201Z,7252
2017-07-20T07:26:06.747Z,7116
2017-07-20T07:27:08.119Z,7388
2017-07-20T07:28:29.648Z,7704
2017-07-20T07:29:31.018Z,7668
2017-07-20T07:30:52.564Z,7732
2017-07-20T07:31:53.934Z,7904
2017-07-20T07:33:15.461Z,8172
2017-07-20T07:34:16.834Z,8408
2017-07-20T07:35:38.361Z,8796
2017-07-20T07:36:39.734Z,9128
2017-07-20T07:38:01.280Z,9892
2017-07-20T07:39:02.649Z,10508
2017-07-20T07:40:24.180Z,11440
2017-07-20T07:41:25.552Z,11568
2017-07-20T07:42:47.104Z,11192
2017-07-20T07:43:48.481Z,10740
2017-07-20T07:45:10.000Z,10148
2017-07-20T07:46:11.369Z,9768
2017-07-20T07:47:32.913Z,9336
2017-07-20T07:48:34.285Z,9364
2017-07-20T07:49:55.810Z,9704
2017-07-20T07:50:57.183Z,10116
2017-07-20T07:52:19.227Z,10656
2017-07-20T07:53:20.599Z,11052
2017-07-20T07:54:42.123Z,11360
2017-07-20T07:55:43.498Z,11504
2017-07-20T07:57:05.044Z,11672
2017-07-20T07:58:06.414Z,11632
2017-07-20T07:59:27.943Z,11120
2017-07-20T08:00:29.315Z,10520
2017-07-20T08:01:50.860Z,9816
2017-07-20T08:02:52.232Z,9544
2017-07-20T08:04:13.760Z,9696
2017-07-20T08:05:15.130Z,9908
2017-07-20T08:06:36.680Z,10116
2017-07-20T08:07:38.049Z,10404
2017-07-20T08:08:59.578Z,10988
2017-07-20T08:10:00.954Z,10968
2017-07-20T08:11:22.500Z,10372
2017-07-20T08:12:23.873Z,12092
2017-07-20T08:13:45.404Z,11956
2017-07-20T08:14:46.776Z,11992
2017-07-20T08:16:08.327Z,12076
2017-07-20T08:17:09.697Z,10376
2017-07-20T08:18:31.225Z,11620
2017-07-20T08:19:32.600Z,12112
2017-07-20T08:20:54.129Z,12452
2017-07-20T08:21:55.504Z,12512
2017-07-20T08:23:17.052Z,12572
2017-07-20T08:24:18.426Z,12744
2017-07-20T08:25:39.955Z,13192
2017-07-20T08:26:41.327Z,13448
2017-07-20T08:28:02.877Z,13084
2017-07-20T08:29:04.250Z,12372
2017-07-20T08:30:25.780Z,10884
2017-07-20T08:31:27.153Z,10684
2017-07-20T08:32:48.701Z,10588
2017-07-20T08:33:50.072Z,9940
2017-07-20T08:35:11.601Z,10204
2017-07-20T08:36:12.977Z,10684
2017-07-20T08:37:34.526Z,10828
2017-07-20T08:38:35.899Z,10664
2017-07-20T08:39:57.429Z,10312
2017-07-20T08:40:58.801Z,9768
2017-07-20T08:42:20.345Z,9160
2017-07-20T08:43:21.718Z,8740
2017-07-20T08:44:43.244Z,8520
2017-07-20T08:45:44.617Z,8292
2017-07-20T08:47:06.165Z,7980
2017-07-20T08:48:07.536Z,7640
2017-07-20T08:49:29.065Z,7292
2017-07-20T08:50:30.437Z,7200
2017-07-20T08:51:51.981Z,7248
2017-07-20T08:52:53.354Z,7504
2017-07-20T08:54:14.882Z,7936
2017-07-20T08:55:16.255Z,8260
2017-07-20T08:56:37.799Z,8904
2017-07-20T08:57:39.172Z,9276
2017-07-20T08:59:00.704Z,9748
2017-07-20T09:00:02.076Z,10412
2017-07-20T09:01:23.626Z,10056
2017-07-20T09:02:24.999Z,9256
2017-07-20T09:03:46.530Z,7620
2017-07-20T09:04:47.902Z,6868
2017-07-20T09:06:09.431Z,8140
2017-07-20T09:07:10.802Z,9920
2017-07-20T09:08:32.349Z,12216
2017-07-20T09:09:33.722Z,12240
2017-07-20T09:10:56.249Z,10360
2017-07-20T09:11:57.622Z,10604
2017-07-20T09:13:19.178Z,6916
2017-07-20T09:14:20.594Z,6204
2017-07-20T09:15:42.155Z,5256
2017-07-20T09:16:43.530Z,5292
2017-07-20T09:18:05.077Z,5828
2017-07-20T09:19:06.449Z,5208
2017-07-20T09:20:27.982Z,5840
2017-07-20T09:21:29.355Z,8444
2017-07-20T09:22:50.922Z,11660
2017-07-20T09:23:52.387Z,13532
2017-07-20T09:25:14.153Z,13620
2017-07-20T09:26:15.525Z,13308
2017-07-20T09:27:37.075Z,12592
2017-07-20T09:28:38.446Z,12080
2017-07-20T09:29:59.982Z,11944
2017-07-20T09:31:01.354Z,10784
2017-07-20T09:32:22.965Z,10980
2017-07-20T09:33:24.342Z,12244
2017-07-20T09:34:45.897Z,11036
2017-07-20T09:35:47.352Z,9204
2017-07-20T09:37:08.893Z,7036
2017-07-20T09:38:10.280Z,9548
2017-07-20T09:39:31.813Z,8872
2017-07-20T09:40:33.186Z,7088
2017-07-20T09:41:54.735Z,6836
2017-07-20T09:42:56.104Z,6824
2017-07-20T09:44:17.633Z,6148
2017-07-20T09:45:19.005Z,8764
2017-07-20T09:46:40.554Z,8592
2017-07-20T09:47:41.927Z,6940
2017-07-20T09:49:03.460Z,5800
2017-07-20T09:50:04.835Z,7228
2017-07-20T09:51:26.377Z,10072
2017-07-20T09:52:27.753Z,10124
2017-07-20T09:53:49.302Z,9164
2017-07-20T09:54:50.673Z,8524
2017-07-20T09:56:12.204Z,9016
2017-07-20T09:57:13.576Z,8920
2017-07-20T09:58:35.146Z,8656
2017-07-20T09:59:36.519Z,8008
2017-07-20T10:00:58.050Z,7412
2017-07-20T10:01:59.424Z,7620
2017-07-20T10:03:20.974Z,12232
2017-07-20T10:04:22.346Z,13552
2017-07-20T10:05:43.884Z,12020
2017-07-20T10:06:45.249Z,13088
2017-07-20T10:08:06.800Z,10528
2017-07-20T10:09:08.171Z,10500
2017-07-20T10:10:29.700Z,13300
2017-07-20T10:11:31.074Z,11692
2017-07-20T10:12:52.630Z,8824
2017-07-20T10:13:54.002Z,11368
2017-07-20T10:15:15.535Z,15260
2017-07-20T10:16:16.910Z,15132
2017-07-20T10:17:38.459Z,16448
2017-07-20T10:18:39.835Z,17140
2017-07-20T10:20:01.363Z,15232
2017-07-20T10:21:02.740Z,15384
2017-07-20T10:22:24.295Z,13940
2017-07-20T10:23:25.670Z,16584
2017-07-20T10:24:47.305Z,18112
2017-07-20T10:25:49.103Z,18304
2017-07-20T10:27:10.662Z,18624
2017-07-20T10:28:12.036Z,19104
2017-07-20T10:29:33.573Z,19296
2017-07-20T10:30:34.950Z,19808
2017-07-20T10:31:56.661Z,19904
2017-07-20T10:32:58.038Z,20224
2017-07-20T10:34:19.573Z,19264
2017-07-20T10:35:20.950Z,18848
2017-07-20T10:36:42.475Z,16496
2017-07-20T10:37:43.855Z,14096
2017-07-20T10:39:05.406Z,12196
2017-07-20T10:40:06.780Z,14360
2017-07-20T10:41:28.314Z,15048
2017-07-20T10:42:29.689Z,13620
2017-07-20T10:43:51.240Z,13712
2017-07-20T10:44:52.617Z,13984
2017-07-20T10:46:14.148Z,13016
2017-07-20T10:47:15.522Z,12160
2017-07-20T10:48:37.075Z,11348
2017-07-20T10:49:38.452Z,10576
2017-07-20T10:50:59.987Z,11332
2017-07-20T10:52:01.361Z,11660
2017-07-20T10:53:22.909Z,9500
2017-07-20T10:54:24.285Z,11564
2017-07-20T10:55:45.822Z,11380
2017-07-20T10:56:47.812Z,11476
2017-07-20T10:58:09.604Z,12028
2017-07-20T10:59:11.353Z,12192
2017-07-20T11:00:32.866Z,12052
2017-07-20T11:01:34.242Z,12596
2017-07-20T11:02:55.801Z,13280
2017-07-20T11:03:57.176Z,14148
2017-07-20T11:05:19.821Z,15048
2017-07-20T11:06:21.105Z,13720
2017-07-20T11:07:43.112Z,11156
2017-07-20T11:08:44.960Z,13032
2017-07-20T11:10:06.498Z,14376
2017-07-20T11:11:07.880Z,15508
2017-07-20T11:12:29.431Z,16356
2017-07-20T11:13:30.808Z,15864
2017-07-20T11:14:52.338Z,16100
2017-07-20T11:15:53.714Z,15124
2017-07-20T11:17:15.267Z,15168
2017-07-20T11:18:16.892Z,15516
2017-07-20T11:19:38.431Z,14868
2017-07-20T11:20:39.808Z,14788
2017-07-20T11:22:01.341Z,13560
2017-07-20T11:23:02.716Z,14616
2017-07-20T11:24:24.329Z,14828
2017-07-20T11:25:25.703Z,15528
2017-07-20T11:26:47.237Z,17216
2017-07-20T11:27:48.612Z,16928
2017-07-20T11:29:10.162Z,17376
2017-07-20T11:30:11.534Z,17184
2017-07-20T11:31:33.101Z,15952
2017-07-20T11:32:34.477Z,15020
2017-07-20T11:33:56.031Z,13712
2017-07-20T11:34:57.433Z,13264
2017-07-20T11:36:18.978Z,10920
2017-07-20T11:37:20.355Z,11488
2017-07-20T11:38:41.907Z,15460
2017-07-20T11:39:43.286Z,16448
2017-07-20T11:41:04.824Z,17728
2017-07-20T11:42:06.203Z,16444
2017-07-20T11:43:27.779Z,14340
2017-07-20T11:44:29.812Z,11848
2017-07-20T11:45:51.352Z,10048
2017-07-20T11:46:53.940Z,9820
2017-07-20T11:48:18.052Z,10792
2017-07-20T16:31:59.157Z,3156
2017-07-20T16:33:00.527Z,3160
2017-07-20T16:34:22.068Z,3176
2017-07-20T16:35:23.439Z,3196
2017-07-20T16:36:44.989Z,3220
2017-07-20T16:37:46.360Z,3260
2017-07-20T16:39:07.900Z,3308
2017-07-20T16:40:09.262Z,3304
2017-07-20T16:41:30.810Z,3308
2017-07-20T16:42:32.296Z,3296
2017-07-20T16:43:54.075Z,3248
2017-07-20T16:44:55.468Z,3224
2017-07-20T16:46:17.018Z,3196
2017-07-20T16:47:18.390Z,3152
2017-07-20T16:48:39.917Z,3096
2017-07-20T16:49:41.291Z,3068
2017-07-20T16:51:02.840Z,3084
2017-07-20T16:52:04.454Z,3092
2017-07-20T16:53:26.017Z,3132
2017-07-20T16:54:27.385Z,3144
2017-07-20T16:55:49.040Z,3108
2017-07-20T16:56:50.415Z,3120
2017-07-20T16:58:11.941Z,3144
2017-07-20T16:59:13.316Z,3148
2017-07-20T17:00:34.848Z,2972
2017-07-20T17:01:36.270Z,2872
2017-07-20T17:02:57.823Z,2848
2017-07-20T17:03:59.400Z,2816
2017-07-20T17:05:20.960Z,2948
2017-07-20T17:06:22.332Z,3024
2017-07-20T17:07:43.880Z,3440
2017-07-20T17:08:45.256Z,3508
2017-07-20T17:10:06.785Z,3248
2017-07-20T17:11:08.159Z,3412
2017-07-20T17:12:29.967Z,4308
2017-07-20T17:13:31.477Z,4808
2017-07-20T17:14:53.009Z,5368
2017-07-20T17:15:54.380Z,5616
2017-07-20T17:17:15.927Z,5788
2017-07-20T17:18:17.306Z,5996
2017-07-20T17:19:38.893Z,5488
2017-07-20T17:20:40.507Z,4628
2017-07-20T17:22:02.337Z,4168
2017-07-20T17:23:03.710Z,4040
2017-07-20T17:24:25.246Z,3804
2017-07-20T17:25:26.657Z,3932
2017-07-20T17:26:48.655Z,4244
2017-07-20T17:27:50.044Z,4552
2017-07-20T17:29:11.576Z,4548
2017-07-20T17:30:12.949Z,4652
2017-07-20T17:31:34.553Z,4896
2017-07-20T17:32:35.926Z,5012
2017-07-20T17:33:57.515Z,4708
2017-07-20T17:34:58.888Z,4440
2017-07-20T17:36:20.635Z,4220
2017-07-20T17:37:22.036Z,3856
2017-07-20T17:38:43.592Z,3704
2017-07-20T17:39:44.965Z,3804
2017-07-20T17:41:06.739Z,3568
2017-07-20T17:42:08.747Z,3420
2017-07-20T17:43:30.534Z,3484
2017-07-20T17:44:31.926Z,3396
2017-07-20T17:45:53.495Z,3320
2017-07-20T17:46:55.119Z,3216
2017-07-20T17:48:16.691Z,3036
2017-07-20T17:49:18.066Z,2968
2017-07-20T17:50:39.619Z,2904
2017-07-20T17:51:40.990Z,2880
2017-07-20T17:53:02.546Z,2876
2017-07-20T17:54:03.918Z,3012
2017-07-20T17:55:25.450Z,3364
2017-07-20T17:56:26.914Z,3724
2017-07-20T17:57:48.463Z,4056
2017-07-20T17:58:49.836Z,4276
2017-07-20T18:00:11.365Z,4292
2017-07-20T18:01:13.016Z,4344
2017-07-20T18:02:34.567Z,4488
2017-07-20T18:03:35.939Z,4568
2017-07-20T18:04:57.479Z,4488
2017-07-20T18:05:58.855Z,4396
2017-07-20T18:07:20.407Z,4144
2017-07-20T18:08:21.781Z,4052
2017-07-20T18:09:43.314Z,3684
2017-07-20T18:10:44.687Z,3700
2017-07-20T18:12:06.241Z,3496
2017-07-20T18:13:07.610Z,3448
2017-07-20T18:14:29.141Z,3304
2017-07-20T18:15:30.518Z,3184
2017-07-20T18:16:52.235Z,3172
2017-07-20T18:17:53.605Z,3120
2017-07-20T18:19:15.141Z,3056
2017-07-20T18:20:16.515Z,2816
2017-07-20T18:21:38.091Z,3092
2017-07-20T18:22:39.463Z,2996
2017-07-20T18:24:00.995Z,2800
2017-07-20T18:25:02.373Z,2696
2017-07-20T18:26:23.913Z,2564
2017-07-20T18:27:25.288Z,2448
2017-07-20T18:28:46.980Z,2392
2017-07-20T18:29:48.358Z,2328
2017-07-20T18:31:09.886Z,2256
2017-07-20T18:32:11.260Z,2308
2017-07-20T18:33:32.813Z,2384
2017-07-20T18:34:34.235Z,2404
2017-07-20T18:35:55.767Z,2340
2017-07-20T18:36:57.145Z,2172
2017-07-20T18:38:18.697Z,2016
2017-07-20T18:39:20.070Z,1928
2017-07-20T18:40:41.611Z,1828
2017-07-20T18:41:42.985Z,1780
2017-07-20T18:43:04.537Z,1700
2017-07-20T18:44:05.908Z,1664
2017-07-20T18:45:27.630Z,1600
2017-07-20T18:46:29.002Z,1540
2017-07-20T18:47:50.551Z,1448
2017-07-20T18:48:51.922Z,1376
2017-07-20T18:50:13.451Z,1288
2017-07-20T18:51:14.827Z,1208
2017-07-20T18:52:36.370Z,1140
2017-07-20T18:53:37.742Z,1092
2017-07-20T18:54:59.272Z,1044
2017-07-20T18:56:00.644Z,996
2017-07-20T18:57:22.198Z,940
2017-07-20T18:58:23.569Z,900
2017-07-20T18:59:45.097Z,856
2017-07-20T19:00:46.467Z,824
2017-07-20T19:02:08.012Z,776
2017-07-20T19:03:09.383Z,744
2017-07-20T19:04:30.909Z,696
2017-07-20T19:05:32.282Z,656
2017-07-20T19:06:53.810Z,608
2017-07-20T19:07:55.261Z,576
2017-07-20T19:09:16.806Z,532
2017-07-20T19:10:18.237Z,504
2017-07-20T19:11:39.763Z,464
2017-07-20T19:12:41.133Z,428
2017-07-20T19:14:02.677Z,384
2017-07-20T19:15:04.102Z,352
2017-07-20T19:16:25.629Z,312
2017-07-20T19:17:27.001Z,284
2017-07-20T19:18:48.554Z,252
2017-07-20T19:19:50.086Z,232
2017-07-20T19:21:11.620Z,208
2017-07-20T19:22:12.989Z,192
2017-07-20T19:23:34.752Z,168
2017-07-20T19:24:36.117Z,152
2017-07-20T19:25:57.651Z,136
2017-07-20T19:26:59.017Z,124
2017-07-20T19:28:20.564Z,112
2017-07-20T19:29:21.932Z,108
2017-07-20T19:30:43.468Z,96
2017-07-20T19:31:44.887Z,84
2017-07-20T19:33:06.437Z,76
2017-07-20T19:34:07.806Z,64
2017-07-20T19:35:29.331Z,56
2017-07-20T19:36:30.700Z,52
2017-07-20T19:37:52.253Z,48
2017-07-20T19:38:53.611Z,44
2017-07-20T19:40:15.136Z,40
2017-07-20T19:41:16.510Z,40
2017-07-20T19:42:38.051Z,32
2017-07-20T19:43:39.420Z,32
2017-07-20T19:45:00.968Z,28
2017-07-20T19:46:02.338Z,24
2017-07-20T19:47:23.863Z,20
2017-07-20T19:48:25.231Z,20
2017-07-20T19:49:46.783Z,20
2017-07-20T19:50:48.189Z,16
2017-07-20T19:52:09.736Z,12
2017-07-20T19:53:11.101Z,12
2017-07-20T19:54:32.648Z,12
2017-07-20T19:55:34.019Z,12
2017-07-20T19:56:55.538Z,12
2017-07-20T19:57:56.906Z,8
2017-07-20T19:59:18.471Z,8
2017-07-20T20:00:19.837Z,4
2017-07-20T20:01:41.357Z,8
2017-07-20T20:02:42.724Z,4
2017-07-20T20:04:04.274Z,4
2017-07-20T20:05:05.633Z,4
2017-07-20T20:06:27.154Z,4
2017-07-20T20:07:28.521Z,0
2017-07-20T20:08:50.070Z,4
2017-07-20T20:09:51.431Z,4
2017-07-20T20:11:12.954Z,0
2017-07-20T20:12:14.320Z,0
2017-07-20T20:13:35.865Z,0
2017-07-20T20:14:37.233Z,0
2017-07-20T20:15:58.757Z,0
2017-07-20T20:17:00.123Z,0
2017-07-20T20:18:21.668Z,0
2017-07-20T20:19:23.029Z,0
2017-07-20T20:20:44.551Z,0
2017-07-20T20:21:45.918Z,0
2017-07-20T20:23:07.462Z,0
2017-07-20T20:24:08.825Z,0
2017-07-20T20:25:30.346Z,0
2017-07-20T20:26:31.807Z,0
2017-07-20T20:27:53.346Z,0
2017-07-20T20:28:54.713Z,0
2017-07-20T20:30:16.236Z,0
2017-07-20T20:31:17.600Z,0
2017-07-20T20:32:39.119Z,0
2017-07-20T20:33:40.909Z,0
2017-07-20T20:35:02.461Z,0
2017-07-20T20:36:03.825Z,0
2017-07-20T20:37:25.352Z,0
2017-07-20T20:38:26.717Z,0
2017-07-20T20:39:48.255Z,0
2017-07-20T20:40:49.620Z,0
2017-07-20T20:42:11.147Z,0
2017-07-20T20:43:12.514Z,0
2017-07-20T20:44:34.544Z,0
2017-07-20T20:45:35.909Z,0
2017-07-20T20:46:57.433Z,0
2017-07-20T20:47:58.800Z,0
2017-07-20T20:49:20.358Z,0
2017-07-20T20:50:21.722Z,0
2017-07-20T20:51:43.243Z,0
2017-07-20T20:52:44.679Z,0
2017-07-20T20:54:06.232Z,0
2017-07-20T20:55:07.596Z,0
2017-07-20T20:56:29.114Z,0
2017-07-20T20:57:30.479Z,0
2017-07-20T20:58:52.020Z,0
2017-07-20T20:59:53.386Z,0
2017-07-20T21:01:14.910Z,0
2017-07-20T21:02:16.273Z,0
2017-07-20T21:03:37.833Z,0
2017-07-20T21:04:39.216Z,0
2017-07-20T21:06:00.757Z,0
2017-07-20T21:07:02.117Z,0
2017-07-20T21:08:23.655Z,0
2017-07-20T21:09:25.021Z,0
2017-07-20T21:10:46.541Z,0
2017-07-20T21:11:47.966Z,0
2017-07-20T21:13:09.504Z,0
2017-07-20T21:14:10.869Z,0
2017-07-20T21:15:32.386Z,0
2017-07-20T21:16:34.231Z,0
2017-07-20T21:17:56.245Z,0
2017-07-20T21:18:57.609Z,0
2017-07-20T21:20:19.143Z,0
2017-07-20T21:21:20.508Z,0
2017-07-20T21:22:42.029Z,0
2017-07-20T21:23:43.394Z,0
2017-07-20T21:25:05.133Z,0
2017-07-20T21:26:06.496Z,0
2017-07-20T21:27:28.008Z,0
2017-07-20T21:28:29.578Z,0
2017-07-20T21:29:51.112Z,0
2017-07-20T21:30:52.511Z,0
2017-07-20T21:32:14.150Z,0
2017-07-20T21:33:15.514Z,0
2017-07-20T21:34:37.053Z,0
2017-07-20T21:35:38.420Z,0
2017-07-20T21:36:59.937Z,0
2017-07-20T21:38:01.307Z,0
2017-07-20T21:39:22.838Z,0
2017-07-20T21:40:24.203Z,0
2017-07-20T21:41:45.722Z,0
2017-07-20T21:42:47.090Z,0
2017-07-20T21:44:08.628Z,0
2017-07-20T21:45:09.991Z,0
2017-07-20T21:46:31.510Z,0
2017-07-20T21:47:33.529Z,0
2017-07-20T21:48:55.206Z,0
2017-07-20T21:49:56.579Z,0
2017-07-20T21:51:18.413Z,0
2017-07-20T21:52:19.785Z,0
2017-07-20T21:53:41.323Z,0
2017-07-20T21:54:42.688Z,0
2017-07-20T21:56:04.212Z,0
2017-07-20T21:57:05.577Z,0
2017-07-20T21:58:27.115Z,0
2017-07-20T21:59:28.541Z,0
2017-07-20T22:00:50.081Z,0
2017-07-20T22:01:51.514Z,0
2017-07-20T22:03:12.991Z,0
2017-07-20T22:04:14.433Z,0
2017-07-20T22:05:35.992Z,0
2017-07-20T22:06:37.359Z,0
2017-07-20T22:07:59.372Z,0
2017-07-20T22:09:00.735Z,0
2017-07-20T22:10:22.335Z,0
2017-07-20T22:11:23.702Z,0
2017-07-20T22:12:45.723Z,0
2017-07-20T22:13:47.106Z,0
2017-07-20T22:15:08.662Z,0
2017-07-20T22:16:10.475Z,0
2017-07-20T22:17:31.989Z,0
2017-07-20T22:18:33.357Z,0
2017-07-20T22:19:55.406Z,0
2017-07-20T22:20:56.770Z,0
2017-07-20T22:22:18.589Z,0
2017-07-20T22:23:20.071Z,0
2017-07-20T22:24:41.713Z,0
2017-07-20T22:25:43.041Z,0
2017-07-20T22:27:04.653Z,0
2017-07-20T22:28:06.030Z,0
2017-07-20T22:29:28.579Z,0
2017-07-20T22:30:29.940Z,0
2017-07-20T22:31:51.458Z,0
2017-07-20T22:32:52.822Z,0
2017-07-20T22:34:14.401Z,0
2017-07-20T22:35:15.766Z,0
2017-07-20T22:36:37.345Z,0
2017-07-20T22:37:38.715Z,0
2017-07-20T22:39:00.747Z,0
2017-07-20T22:40:02.114Z,0
2017-07-20T22:41:23.629Z,0
2017-07-20T22:42:24.995Z,0
2017-07-20T22:43:46.530Z,0
2017-07-20T22:44:47.895Z,0
2017-07-20T22:46:09.413Z,0
2017-07-20T22:47:10.779Z,0
2017-07-20T22:48:32.497Z,0
2017-07-20T22:49:33.869Z,0
2017-07-20T22:50:55.414Z,0
2017-07-20T22:51:56.894Z,0
2017-07-20T22:53:18.584Z,0
2017-07-20T22:54:19.949Z,0
2017-07-20T22:55:41.485Z,0
2017-07-20T22:56:42.848Z,0
2017-07-20T22:58:04.424Z,0
2017-07-20T22:59:05.789Z,0
2017-07-20T23:00:27.328Z,0
2017-07-20T23:01:28.690Z,0
2017-07-20T23:02:50.212Z,0
2017-07-20T23:03:51.574Z,0
2017-07-20T23:05:13.117Z,0
2017-07-20T23:06:14.479Z,0
2017-07-20T23:07:36.000Z,0
2017-07-20T23:08:37.365Z,0
2017-07-20T23:09:58.900Z,0
2017-07-20T23:11:00.262Z,0
2017-07-20T23:12:21.781Z,0
2017-07-20T23:13:23.149Z,0
2017-07-20T23:14:44.682Z,0
2017-07-20T23:15:46.045Z,0
2017-07-20T23:17:07.565Z,0
2017-07-20T23:18:08.930Z,0
2017-07-20T23:19:30.465Z,0
2017-07-20T23:20:31.830Z,0
2017-07-20T23:21:53.349Z,0
2017-07-20T23:22:54.712Z,0
2017-07-20T23:24:16.448Z,0
2017-07-20T23:25:17.810Z,0
2017-07-20T23:26:39.325Z,0
2017-07-20T23:27:40.691Z,0
2017-07-20T23:29:02.229Z,0
2017-07-20T23:30:03.718Z,0
2017-07-20T23:31:25.243Z,0
2017-07-20T23:32:26.606Z,0
2017-07-20T23:33:48.179Z,0
2017-07-20T23:34:49.600Z,0
2017-07-20T23:36:11.146Z,0
2017-07-20T23:37:12.513Z,0
2017-07-20T23:38:34.067Z,0
2017-07-20T23:39:35.487Z,0
2017-07-20T23:40:57.023Z,0
2017-07-20T23:41:58.387Z,0
2017-07-20T23:43:19.915Z,0
2017-07-20T23:44:21.344Z,0
2017-07-20T23:45:43.108Z,0
2017-07-20T23:46:44.528Z,0
2017-07-20T23:48:06.046Z,0
2017-07-20T23:49:07.411Z,0
2017-07-20T23:50:29.179Z,0
2017-07-20T23:51:30.592Z,0
2017-07-20T23:52:52.188Z,0
2017-07-20T23:53:53.638Z,0
2017-07-20T23:55:15.274Z,0
2017-07-20T23:56:16.638Z,0
2017-07-20T23:57:38.153Z,0
2017-07-20T23:58:39.519Z,0
